• Join FlightAware (Why Join?)
  • Login
  • US Flag 
09:23PM EDT


 

Airport Tracker/Info


-or-


 

Live Flight TrackerFlight Track Log ✈ N1045F ✈ 02-Jun-2013 ✈ KEZI - KBTL

Flight Track Log - Related Links

Times and Time Zones

All times are in EDT time to prevent confusion due to time zone crossing. See the N1045F flight status page for this flight to view local times or setup timezone preferences in your user account.

Time Position Orientation Groundspeed Altitude Reporting Facility
EDT Latitude Longitude Course Direction KTS MPH feet Rate Location/Type
11:19AM 41.2822 -89.9794 90° East 120 138 3,900  Level Chicago Center
11:20AM 41.3150 -89.9553 29° Northeast 138 159 4,100 360 Climbing Chicago Center
11:21AM 41.3142 -89.8953 91° East 155 178 4,700 420 Climbing Chicago Center
11:22AM 41.3119 -89.8369 93° East 158 182 5,000 120 Climbing Chicago Center
11:23AM 41.3111 -89.7733 91° East 165 190 5,000  Level Chicago Center
11:24AM 41.3078 -89.7078 94° East 174 200 5,000  Level Chicago Center
11:25AM 41.2979 -89.6023 90° East  Level Estimated
11:25AM 41.3067 -89.6425 91° East 176 203 5,000  Level Chicago Center
11:26AM 41.3039 -89.5667 93° East 173 199 5,000  Level Chicago Center
11:27AM 41.3011 -89.5014 93° East 175 201 5,000  Level Chicago Center
11:28AM 41.2992 -89.4375 92° East 174 200 5,000  Level Chicago Center
11:29AM 41.2969 -89.3725 93° East 174 200 5,000  Level Chicago Center
11:30AM 41.2928 -89.3050 95° East 178 205 5,000 -60 Level Chicago Center
11:32AM 41.2889 -89.2383 94° East 180 207 4,900  Descending Chicago Center
11:33AM 41.2886 -89.1781 90° East 175 201 5,000  Climbing Chicago Center
11:34AM 41.2856 -89.1028 93° East 171 197 5,000  Level Chicago Center
11:35AM 41.2836 -89.0389 92° East 174 200 5,000  Level Chicago Center
11:36AM 41.2803 -88.9764 94° East 172 198 5,000  Level Chicago Center
11:37AM 41.2789 -88.9144 92° East 170 196 5,000  Level Chicago Center
11:38AM 41.2761 -88.8525 93° East 170 196 5,000  Level Chicago Center
11:39AM 41.2733 -88.7894 93° East 171 197 5,000  Level Chicago Center
11:40AM 41.2700 -88.7144 93° East 171 197 5,000  Level Chicago Center
11:41AM 41.2675 -88.6517 93° East 171 197 5,000  Level Chicago Center
11:42AM 41.2644 -88.5900 94° East 170 196 5,000  Level Chicago Center
11:43AM 41.2622 -88.5286 93° East 168 193 5,000  Level Chicago Center
11:44AM 41.2594 -88.4664 93° East 170 196 5,000  Level Chicago Center
11:45AM 41.2561 -88.4047 94° East 169 194 5,000  Level Chicago Center
11:46AM 41.2533 -88.3300 93° East 170 196 5,000  Level Chicago Center
11:47AM 41.2508 -88.2678 93° East 171 197 5,000  Level Chicago Center
11:48AM 41.2489 -88.2047 92° East 172 198 5,000  Level Chicago Center
11:49AM 41.2453 -88.1433 94° East 170 196 5,000  Level Chicago Center
11:50AM 41.2419 -88.0700 93° East 169 194 5,000  Level Chicago Center
11:51AM 41.2392 -88.0083 93° East 169 194 5,000  Level Chicago Center
11:52AM 41.2353 -87.9450 95° East 172 198 5,000  Level Chicago Center
11:53AM 41.2319 -87.8814 94° East 174 200 5,000  Level Chicago Center
11:54AM 41.2292 -87.8183 93° East 174 200 5,000  Level Chicago Center
11:55AM 41.2256 -87.7431 94° East 173 199 5,000  Level Chicago Center
11:56AM 41.2217 -87.6789 95° East 174 200 5,000  Level Chicago Center
11:57AM 41.2183 -87.6144 94° East 175 201 5,000  Level Chicago Center
11:58AM 41.2153 -87.5517 94° East 174 200 5,000  Level Chicago Center
11:59AM 41.2122 -87.4872 94° East 175 201 5,000  Level Chicago Center
12:00PM 41.2078 -87.4106 94° East 175 201 5,000  Level Chicago Center
12:01PM 41.2039 -87.3467 95° East 176 203 5,000  Level Chicago Center
12:02PM 41.2006 -87.2828 94° East 175 201 5,000  Level Chicago Center
12:03PM 41.1978 -87.2186 93° East 175 201 5,000  Level Chicago Center
12:05PM 41.1939 -87.1550 95° East 174 200 5,000  Level Chicago Center
12:06PM 41.1897 -87.0783 94° East 175 201 5,000  Level Chicago Center
12:07PM 41.1864 -87.0147 94° East 175 201 5,000  Level Chicago Center
12:08PM 41.1822 -86.9506 95° East 175 201 5,000  Level Chicago Center
12:09PM 41.2114 -86.9006 52° Northeast 185 213 5,000  Level Chicago Center
12:10PM 41.2419 -86.8561 48° Northeast 169 194 5,000  Level Chicago Center
12:11PM 41.2803 -86.7994 48° Northeast 171 197 5,000  Level Chicago Center
12:12PM 41.3106 -86.7525 49° Northeast 171 197 5,000  Level Chicago Center
12:13PM 41.3417 -86.7064 48° Northeast 170 196 5,000  Level Chicago Center
12:14PM 41.3717 -86.6594 50° Northeast 169 194 5,000  Level Chicago Center
12:15PM 41.4039 -86.6108 49° Northeast 171 197 5,000  Level Chicago Center
12:16PM 41.4369 -86.5653 46° Northeast 171 197 5,000  Level Chicago Center
12:17PM 41.4761 -86.5083 47° Northeast 173 199 5,000  Level Chicago Center
12:18PM 41.5011 -86.4697 49° Northeast 173 199 5,000  Level Chicago Center
12:19PM 41.5400 -86.4117 48° Northeast 174 200 5,000  Level Chicago Center
12:20PM 41.5711 -86.3639 49° Northeast 172 198 5,000  Level Chicago Center
12:21PM 41.6042 -86.3161 47° Northeast 174 200 5,000  Level Chicago Center
12:22PM 41.6361 -86.2672 49° Northeast 174 200 5,000  Level Chicago Center
12:23PM 41.6683 -86.2189 48° Northeast 174 200 5,000  Level Chicago Center
12:24PM 41.7075 -86.1608 48° Northeast 175 201 5,000  Level Chicago Center
12:25PM 41.7394 -86.1139 48° Northeast 174 200 5,000  Level Chicago Center
12:26PM 41.7714 -86.0650 49° Northeast 173 199 5,000  Level Chicago Center
12:27PM 41.8039 -86.0167 48° Northeast 174 200 5,000  Level Chicago Center
12:28PM 41.8372 -85.9664 48° Northeast 178 205 5,000  Level Chicago Center
12:29PM 41.8692 -85.9178 49° Northeast 175 201 5,000 -240 Level Chicago Center
12:30PM 41.9092 -85.8619 46° Northeast 174 200 4,600 -480 Descending Chicago Center
12:31PM 41.9483 -85.8117 44° Northeast 187 215 4,100 -300 Descending Chicago Center
12:32PM 41.9769 -85.7553 56° Northeast 188 216 4,000 -120 Descending Chicago Center
12:33PM 41.9939 -85.6933 70° East 180 207 3,900 -300 Descending Chicago Center
12:34PM 42.0136 -85.6294 67° East 182 209 3,400 -480 Descending Chicago Center
12:35PM 42.0308 -85.5617 71° East 188 216 3,000 -240 Descending Chicago Center
12:37PM 42.0503 -85.5019 66° East 183 211 3,000  Level Chicago Center
12:38PM 42.0733 -85.4364 65° Northeast 171 197 3,000  Level Chicago Center
12:39PM 42.0878 -85.3806 71° East 164 189 3,000  Level Chicago Center
12:40PM 42.1036 -85.3261 69° East 159 183 3,000  Level Chicago Center
12:41PM 42.1214 -85.2719 66° East 158 182 3,000  Level Chicago Center
12:42PM 42.1381 -85.2169 68° East 158 182 3,000  Level Chicago Center
12:43PM 42.1547 -85.1633 67° East 157 181 3,000  Level Chicago Center
12:44PM 42.1694 -85.1186 66° East 147 169 3,000  Level Chicago Center
12:45PM 42.1944 -85.0828 47° Northeast 126 145 3,000  Level Chicago Center
12:47PM 42.2367 -85.1089 335° Northwest 98 113 3,000  Level Chicago Center
12:48PM 42.2528 -85.1425 303° West 99 114 3,000 960 Level Chicago Center
12:49PM 42.2708 -85.1728 309° West 102 117 5,000 -480 Climbing Chicago Center
12:50PM 42.2861 -85.2036 304° West 102 117 2,100 -1,740 Descending Chicago Center
12:51PM 42.2997 -85.2294 305° West 95 109 1,500 -600 Descending Chicago Center